sensor_id;sensor_type;location;lat;lon;timestamp;P1;durP1;ratioP1;P2;durP2;ratioP2
53010;SDS011;42803;55.762;38.084;2023-07-29T00:00:16;5.22;;;2.05;;
53010;SDS011;42803;55.762;38.084;2023-07-29T00:02:47;7.25;;;1.70;;
53010;SDS011;42803;55.762;38.084;2023-07-29T00:05:16;2.88;;;2.00;;
53010;SDS011;42803;55.762;38.084;2023-07-29T00:07:45;4.05;;;1.80;;
53010;SDS011;42803;55.762;38.084;2023-07-29T00:10:15;4.07;;;2.83;;
53010;SDS011;42803;55.762;38.084;2023-07-29T00:12:45;2.95;;;2.60;;
53010;SDS011;42803;55.762;38.084;2023-07-29T00:15:14;4.07;;;2.90;;
53010;SDS011;42803;55.762;38.084;2023-07-29T00:17:44;4.03;;;3.10;;
53010;SDS011;42803;55.762;38.084;2023-07-29T00:20:13;6.53;;;3.40;;
53010;SDS011;42803;55.762;38.084;2023-07-29T00:22:42;4.93;;;3.08;;
53010;SDS011;42803;55.762;38.084;2023-07-29T00:25:11;4.05;;;3.17;;
53010;SDS011;42803;55.762;38.084;2023-07-29T00:27:42;6.05;;;4.20;;
53010;SDS011;42803;55.762;38.084;2023-07-29T00:30:11;5.07;;;3.50;;
53010;SDS011;42803;55.762;38.084;2023-07-29T00:32:42;4.50;;;3.58;;
53010;SDS011;42803;55.762;38.084;2023-07-29T00:35:12;3.65;;;3.00;;
53010;SDS011;42803;55.762;38.084;2023-07-29T00:37:41;8.02;;;3.05;;
53010;SDS011;42803;55.762;38.084;2023-07-29T00:40:13;6.80;;;2.72;;
53010;SDS011;42803;55.762;38.084;2023-07-29T00:42:46;7.53;;;3.40;;
53010;SDS011;42803;55.762;38.084;2023-07-29T00:45:15;4.18;;;3.03;;
53010;SDS011;42803;55.762;38.084;2023-07-29T00:47:45;4.28;;;3.10;;
53010;SDS011;42803;55.762;38.084;2023-07-29T00:50:16;4.22;;;3.50;;
53010;SDS011;42803;55.762;38.084;2023-07-29T00:52:46;6.05;;;2.65;;
53010;SDS011;42803;55.762;38.084;2023-07-29T00:55:15;4.63;;;3.08;;
53010;SDS011;42803;55.762;38.084;2023-07-29T00:57:47;4.90;;;2.85;;
53010;SDS011;42803;55.762;38.084;2023-07-29T01:00:18;4.70;;;2.85;;
53010;SDS011;42803;55.762;38.084;2023-07-29T01:02:48;3.17;;;2.65;;
53010;SDS011;42803;55.762;38.084;2023-07-29T01:05:19;7.70;;;2.90;;
53010;SDS011;42803;55.762;38.084;2023-07-29T01:07:51;3.17;;;2.80;;
53010;SDS011;42803;55.762;38.084;2023-07-29T01:10:28;5.35;;;3.25;;
53010;SDS011;42803;55.762;38.084;2023-07-29T01:13:13;4.95;;;2.83;;
53010;SDS011;42803;55.762;38.084;2023-07-29T01:15:47;3.53;;;2.60;;
53010;SDS011;42803;55.762;38.084;2023-07-29T01:18:23;4.57;;;2.88;;
53010;SDS011;42803;55.762;38.084;2023-07-29T01:20:55;3.03;;;2.63;;
53010;SDS011;42803;55.762;38.084;2023-07-29T01:23:30;4.82;;;2.67;;
53010;SDS011;42803;55.762;38.084;2023-07-29T01:26:00;4.53;;;2.90;;
53010;SDS011;42803;55.762;38.084;2023-07-29T01:28:29;4.50;;;2.85;;
53010;SDS011;42803;55.762;38.084;2023-07-29T01:31:01;3.40;;;2.90;;
53010;SDS011;42803;55.762;38.084;2023-07-29T01:33:37;6.30;;;3.30;;
53010;SDS011;42803;55.762;38.084;2023-07-29T01:36:12;6.60;;;3.13;;
53010;SDS011;42803;55.762;38.084;2023-07-29T01:38:48;3.95;;;2.60;;
53010;SDS011;42803;55.762;38.084;2023-07-29T01:41:20;5.13;;;2.97;;
53010;SDS011;42803;55.762;38.084;2023-07-29T01:43:50;5.82;;;3.17;;
53010;SDS011;42803;55.762;38.084;2023-07-29T01:46:20;3.35;;;2.35;;
53010;SDS011;42803;55.762;38.084;2023-07-29T01:48:50;4.72;;;3.10;;
53010;SDS011;42803;55.762;38.084;2023-07-29T01:51:19;4.00;;;3.15;;
53010;SDS011;42803;55.762;38.084;2023-07-29T01:53:50;3.55;;;2.60;;
53010;SDS011;42803;55.762;38.084;2023-07-29T01:56:19;4.20;;;2.83;;
53010;SDS011;42803;55.762;38.084;2023-07-29T01:58:54;3.50;;;2.90;;
53010;SDS011;42803;55.762;38.084;2023-07-29T02:01:24;7.43;;;3.15;;
53010;SDS011;42803;55.762;38.084;2023-07-29T02:03:53;4.65;;;2.95;;
53010;SDS011;42803;55.762;38.084;2023-07-29T02:06:24;5.18;;;3.00;;
53010;SDS011;42803;55.762;38.084;2023-07-29T02:08:55;3.92;;;3.25;;
53010;SDS011;42803;55.762;38.084;2023-07-29T02:11:24;7.93;;;4.93;;
53010;SDS011;42803;55.762;38.084;2023-07-29T02:13:56;3.47;;;2.97;;
53010;SDS011;42803;55.762;38.084;2023-07-29T02:16:27;3.75;;;2.95;;
53010;SDS011;42803;55.762;38.084;2023-07-29T02:18:56;4.82;;;3.00;;
53010;SDS011;42803;55.762;38.084;2023-07-29T02:21:25;4.80;;;3.25;;
53010;SDS011;42803;55.762;38.084;2023-07-29T02:23:56;3.45;;;2.95;;
53010;SDS011;42803;55.762;38.084;2023-07-29T02:26:25;5.20;;;3.63;;
53010;SDS011;42803;55.762;38.084;2023-07-29T02:28:54;6.22;;;3.58;;
53010;SDS011;42803;55.762;38.084;2023-07-29T02:31:24;5.35;;;3.88;;
53010;SDS011;42803;55.762;38.084;2023-07-29T02:33:54;7.55;;;4.25;;
53010;SDS011;42803;55.762;38.084;2023-07-29T02:36:23;6.35;;;4.32;;
53010;SDS011;42803;55.762;38.084;2023-07-29T02:38:53;6.20;;;3.75;;
53010;SDS011;42803;55.762;38.084;2023-07-29T02:41:23;4.72;;;4.03;;
53010;SDS011;42803;55.762;38.084;2023-07-29T02:43:52;6.57;;;4.32;;
53010;SDS011;42803;55.762;38.084;2023-07-29T02:46:22;6.40;;;3.45;;
53010;SDS011;42803;55.762;38.084;2023-07-29T02:48:51;5.72;;;4.03;;
53010;SDS011;42803;55.762;38.084;2023-07-29T02:51:20;10.32;;;4.28;;
53010;SDS011;42803;55.762;38.084;2023-07-29T02:53:49;4.03;;;3.03;;
53010;SDS011;42803;55.762;38.084;2023-07-29T02:56:18;6.18;;;3.38;;
53010;SDS011;42803;55.762;38.084;2023-07-29T02:58:49;5.85;;;3.28;;
53010;SDS011;42803;55.762;38.084;2023-07-29T03:01:19;3.90;;;3.40;;
53010;SDS011;42803;55.762;38.084;2023-07-29T03:03:49;4.40;;;3.35;;
53010;SDS011;42803;55.762;38.084;2023-07-29T03:06:18;7.03;;;3.20;;
53010;SDS011;42803;55.762;38.084;2023-07-29T03:08:47;7.78;;;3.45;;
53010;SDS011;42803;55.762;38.084;2023-07-29T03:11:16;11.00;;;3.53;;
53010;SDS011;42803;55.762;38.084;2023-07-29T03:13:45;5.47;;;3.50;;
53010;SDS011;42803;55.762;38.084;2023-07-29T03:16:16;5.85;;;3.10;;
53010;SDS011;42803;55.762;38.084;2023-07-29T03:18:52;5.57;;;3.90;;
53010;SDS011;42803;55.762;38.084;2023-07-29T03:21:21;6.70;;;3.38;;
53010;SDS011;42803;55.762;38.084;2023-07-29T03:23:50;6.43;;;3.58;;
53010;SDS011;42803;55.762;38.084;2023-07-29T03:26:19;5.70;;;3.25;;
53010;SDS011;42803;55.762;38.084;2023-07-29T03:28:48;4.32;;;3.40;;
53010;SDS011;42803;55.762;38.084;2023-07-29T03:31:18;3.40;;;2.80;;
53010;SDS011;42803;55.762;38.084;2023-07-29T03:33:48;4.85;;;3.00;;
53010;SDS011;42803;55.762;38.084;2023-07-29T03:36:17;5.63;;;4.03;;
53010;SDS011;42803;55.762;38.084;2023-07-29T03:38:46;7.15;;;3.08;;
53010;SDS011;42803;55.762;38.084;2023-07-29T03:41:16;7.93;;;3.70;;
53010;SDS011;42803;55.762;38.084;2023-07-29T03:43:45;6.18;;;3.38;;
53010;SDS011;42803;55.762;38.084;2023-07-29T03:46:14;3.95;;;3.42;;
53010;SDS011;42803;55.762;38.084;2023-07-29T03:48:49;4.35;;;2.90;;
53010;SDS011;42803;55.762;38.084;2023-07-29T03:51:18;2.92;;;2.55;;
53010;SDS011;42803;55.762;38.084;2023-07-29T03:53:48;5.07;;;3.00;;
53010;SDS011;42803;55.762;38.084;2023-07-29T03:56:17;3.25;;;2.53;;
53010;SDS011;42803;55.762;38.084;2023-07-29T03:58:46;4.03;;;2.80;;
53010;SDS011;42803;55.762;38.084;2023-07-29T04:01:15;3.20;;;2.80;;
53010;SDS011;42803;55.762;38.084;2023-07-29T04:03:45;3.35;;;2.70;;
53010;SDS011;42803;55.762;38.084;2023-07-29T04:06:16;5.13;;;3.03;;
53010;SDS011;42803;55.762;38.084;2023-07-29T04:08:45;3.97;;;2.85;;
53010;SDS011;42803;55.762;38.084;2023-07-29T04:11:15;3.45;;;2.60;;
53010;SDS011;42803;55.762;38.084;2023-07-29T04:13:44;3.80;;;2.65;;
53010;SDS011;42803;55.762;38.084;2023-07-29T04:16:13;3.03;;;2.63;;
53010;SDS011;42803;55.762;38.084;2023-07-29T04:18:43;3.53;;;2.72;;
53010;SDS011;42803;55.762;38.084;2023-07-29T04:21:12;4.07;;;2.78;;
53010;SDS011;42803;55.762;38.084;2023-07-29T04:23:42;5.53;;;2.72;;
53010;SDS011;42803;55.762;38.084;2023-07-29T04:26:12;4.57;;;3.10;;
53010;SDS011;42803;55.762;38.084;2023-07-29T04:28:41;6.80;;;2.60;;
53010;SDS011;42803;55.762;38.084;2023-07-29T04:31:10;3.13;;;2.67;;
53010;SDS011;42803;55.762;38.084;2023-07-29T04:33:40;3.92;;;2.85;;
53010;SDS011;42803;55.762;38.084;2023-07-29T04:36:10;5.50;;;2.90;;
53010;SDS011;42803;55.762;38.084;2023-07-29T04:38:44;3.78;;;2.90;;
53010;SDS011;42803;55.762;38.084;2023-07-29T04:41:13;2.15;;;1.92;;
53010;SDS011;42803;55.762;38.084;2023-07-29T04:43:42;2.83;;;2.42;;
53010;SDS011;42803;55.762;38.084;2023-07-29T04:46:11;3.50;;;2.25;;
53010;SDS011;42803;55.762;38.084;2023-07-29T04:48:41;3.92;;;2.65;;
53010;SDS011;42803;55.762;38.084;2023-07-29T04:51:10;2.85;;;2.45;;
53010;SDS011;42803;55.762;38.084;2023-07-29T04:53:40;3.15;;;2.40;;
53010;SDS011;42803;55.762;38.084;2023-07-29T04:56:11;2.75;;;2.50;;
53010;SDS011;42803;55.762;38.084;2023-07-29T04:58:45;3.60;;;2.45;;
53010;SDS011;42803;55.762;38.084;2023-07-29T05:01:14;5.38;;;2.83;;
53010;SDS011;42803;55.762;38.084;2023-07-29T05:03:43;3.08;;;2.47;;
53010;SDS011;42803;55.762;38.084;2023-07-29T05:06:13;4.80;;;2.38;;
53010;SDS011;42803;55.762;38.084;2023-07-29T05:08:42;4.47;;;2.22;;
53010;SDS011;42803;55.762;38.084;2023-07-29T05:11:12;3.63;;;2.47;;
53010;SDS011;42803;55.762;38.084;2023-07-29T05:13:42;2.53;;;2.33;;
53010;SDS011;42803;55.762;38.084;2023-07-29T05:16:12;3.40;;;2.30;;
53010;SDS011;42803;55.762;38.084;2023-07-29T05:18:42;3.58;;;2.42;;
53010;SDS011;42803;55.762;38.084;2023-07-29T05:21:11;2.47;;;2.28;;
53010;SDS011;42803;55.762;38.084;2023-07-29T05:23:41;4.18;;;2.38;;
53010;SDS011;42803;55.762;38.084;2023-07-29T05:26:11;2.90;;;2.10;;
53010;SDS011;42803;55.762;38.084;2023-07-29T05:28:41;3.95;;;2.60;;
53010;SDS011;42803;55.762;38.084;2023-07-29T05:31:13;5.60;;;2.85;;
53010;SDS011;42803;55.762;38.084;2023-07-29T05:33:42;4.80;;;2.90;;
53010;SDS011;42803;55.762;38.084;2023-07-29T05:36:11;3.97;;;3.45;;
53010;SDS011;42803;55.762;38.084;2023-07-29T05:38:40;5.63;;;3.67;;
53010;SDS011;42803;55.762;38.084;2023-07-29T05:41:09;4.18;;;3.35;;
53010;SDS011;42803;55.762;38.084;2023-07-29T05:43:40;4.25;;;3.13;;
53010;SDS011;42803;55.762;38.084;2023-07-29T05:46:10;3.53;;;3.10;;
53010;SDS011;42803;55.762;38.084;2023-07-29T05:48:40;3.80;;;3.40;;
53010;SDS011;42803;55.762;38.084;2023-07-29T05:51:10;5.75;;;3.60;;
53010;SDS011;42803;55.762;38.084;2023-07-29T05:53:39;4.15;;;3.22;;
53010;SDS011;42803;55.762;38.084;2023-07-29T05:56:09;3.63;;;3.03;;
53010;SDS011;42803;55.762;38.084;2023-07-29T05:58:39;5.03;;;2.97;;
53010;SDS011;42803;55.762;38.084;2023-07-29T06:01:08;5.18;;;3.20;;
53010;SDS011;42803;55.762;38.084;2023-07-29T06:03:37;5.00;;;3.20;;
53010;SDS011;42803;55.762;38.084;2023-07-29T06:06:07;4.57;;;2.97;;
53010;SDS011;42803;55.762;38.084;2023-07-29T06:08:36;3.95;;;2.90;;
53010;SDS011;42803;55.762;38.084;2023-07-29T06:11:05;4.82;;;3.13;;
53010;SDS011;42803;55.762;38.084;2023-07-29T06:13:34;4.93;;;2.70;;
53010;SDS011;42803;55.762;38.084;2023-07-29T06:16:05;3.88;;;2.90;;
53010;SDS011;42803;55.762;38.084;2023-07-29T06:18:35;3.47;;;2.83;;
53010;SDS011;42803;55.762;38.084;2023-07-29T06:21:04;4.93;;;2.85;;
53010;SDS011;42803;55.762;38.084;2023-07-29T06:23:35;3.72;;;2.78;;
53010;SDS011;42803;55.762;38.084;2023-07-29T06:26:04;5.55;;;3.42;;
53010;SDS011;42803;55.762;38.084;2023-07-29T06:28:34;3.67;;;3.17;;
53010;SDS011;42803;55.762;38.084;2023-07-29T06:31:04;3.65;;;3.10;;
53010;SDS011;42803;55.762;38.084;2023-07-29T06:33:33;3.83;;;3.45;;
53010;SDS011;42803;55.762;38.084;2023-07-29T06:36:03;5.25;;;3.25;;
53010;SDS011;42803;55.762;38.084;2023-07-29T06:38:34;5.30;;;4.20;;
53010;SDS011;42803;55.762;38.084;2023-07-29T06:41:04;5.15;;;4.05;;
53010;SDS011;42803;55.762;38.084;2023-07-29T06:43:33;4.10;;;3.70;;
53010;SDS011;42803;55.762;38.084;2023-07-29T06:46:02;4.22;;;2.97;;
53010;SDS011;42803;55.762;38.084;2023-07-29T06:48:33;4.90;;;3.38;;
53010;SDS011;42803;55.762;38.084;2023-07-29T06:51:02;3.33;;;2.75;;
53010;SDS011;42803;55.762;38.084;2023-07-29T06:53:32;3.65;;;3.17;;
53010;SDS011;42803;55.762;38.084;2023-07-29T06:56:01;3.30;;;2.90;;
53010;SDS011;42803;55.762;38.084;2023-07-29T06:58:30;4.22;;;3.42;;
53010;SDS011;42803;55.762;38.084;2023-07-29T07:01:00;3.08;;;2.67;;
53010;SDS011;42803;55.762;38.084;2023-07-29T07:03:32;3.35;;;3.05;;
53010;SDS011;42803;55.762;38.084;2023-07-29T07:06:01;3.55;;;3.25;;
53010;SDS011;42803;55.762;38.084;2023-07-29T07:08:30;3.35;;;2.90;;
53010;SDS011;42803;55.762;38.084;2023-07-29T07:10:59;3.17;;;2.75;;
53010;SDS011;42803;55.762;38.084;2023-07-29T07:13:29;4.57;;;3.28;;
53010;SDS011;42803;55.762;38.084;2023-07-29T07:15:58;3.92;;;3.47;;
53010;SDS011;42803;55.762;38.084;2023-07-29T07:18:29;4.13;;;3.05;;
53010;SDS011;42803;55.762;38.084;2023-07-29T07:20:59;4.70;;;3.50;;
53010;SDS011;42803;55.762;38.084;2023-07-29T07:23:29;3.25;;;2.95;;
53010;SDS011;42803;55.762;38.084;2023-07-29T07:25:58;3.70;;;3.10;;
53010;SDS011;42803;55.762;38.084;2023-07-29T07:28:27;4.07;;;3.17;;
53010;SDS011;42803;55.762;38.084;2023-07-29T07:30:56;4.35;;;3.80;;
53010;SDS011;42803;55.762;38.084;2023-07-29T07:33:26;4.60;;;4.03;;
53010;SDS011;42803;55.762;38.084;2023-07-29T07:35:55;4.55;;;3.60;;
53010;SDS011;42803;55.762;38.084;2023-07-29T07:38:26;4.13;;;3.42;;
53010;SDS011;42803;55.762;38.084;2023-07-29T07:40:55;4.13;;;3.35;;
53010;SDS011;42803;55.762;38.084;2023-07-29T07:43:25;5.03;;;3.78;;
53010;SDS011;42803;55.762;38.084;2023-07-29T07:45:57;7.15;;;5.00;;
53010;SDS011;42803;55.762;38.084;2023-07-29T07:48:28;6.40;;;4.13;;
53010;SDS011;42803;55.762;38.084;2023-07-29T07:50:57;5.20;;;3.20;;
53010;SDS011;42803;55.762;38.084;2023-07-29T07:53:28;3.50;;;3.03;;
53010;SDS011;42803;55.762;38.084;2023-07-29T07:55:58;5.50;;;2.90;;
53010;SDS011;42803;55.762;38.084;2023-07-29T07:58:28;6.18;;;3.20;;
53010;SDS011;42803;55.762;38.084;2023-07-29T08:01:00;4.53;;;2.72;;
53010;SDS011;42803;55.762;38.084;2023-07-29T08:03:30;5.70;;;3.15;;
53010;SDS011;42803;55.762;38.084;2023-07-29T08:06:00;3.85;;;2.65;;
53010;SDS011;42803;55.762;38.084;2023-07-29T08:08:30;2.75;;;2.38;;
53010;SDS011;42803;55.762;38.084;2023-07-29T08:10:59;3.88;;;2.35;;
53010;SDS011;42803;55.762;38.084;2023-07-29T08:13:29;4.47;;;2.30;;
53010;SDS011;42803;55.762;38.084;2023-07-29T08:15:58;3.97;;;2.72;;
53010;SDS011;42803;55.762;38.084;2023-07-29T08:18:27;2.60;;;2.08;;
53010;SDS011;42803;55.762;38.084;2023-07-29T08:20:57;4.35;;;2.55;;
53010;SDS011;42803;55.762;38.084;2023-07-29T08:23:34;5.00;;;2.25;;
53010;SDS011;42803;55.762;38.084;2023-07-29T08:26:05;2.43;;;2.20;;
53010;SDS011;42803;55.762;38.084;2023-07-29T08:28:35;3.17;;;2.63;;
53010;SDS011;42803;55.762;38.084;2023-07-29T08:31:06;3.92;;;2.20;;
53010;SDS011;42803;55.762;38.084;2023-07-29T08:33:36;2.85;;;2.58;;
53010;SDS011;42803;55.762;38.084;2023-07-29T08:36:05;3.05;;;2.70;;
53010;SDS011;42803;55.762;38.084;2023-07-29T08:38:36;3.78;;;2.97;;
53010;SDS011;42803;55.762;38.084;2023-07-29T08:41:08;3.95;;;2.92;;
53010;SDS011;42803;55.762;38.084;2023-07-29T08:43:43;3.38;;;2.80;;
53010;SDS011;42803;55.762;38.084;2023-07-29T08:46:18;5.35;;;2.80;;
53010;SDS011;42803;55.762;38.084;2023-07-29T08:48:48;5.15;;;3.40;;
53010;SDS011;42803;55.762;38.084;2023-07-29T08:51:18;3.92;;;3.30;;
53010;SDS011;42803;55.762;38.084;2023-07-29T08:53:51;5.10;;;3.13;;
53010;SDS011;42803;55.762;38.084;2023-07-29T08:56:22;5.95;;;3.22;;
53010;SDS011;42803;55.762;38.084;2023-07-29T08:58:51;5.05;;;3.17;;
53010;SDS011;42803;55.762;38.084;2023-07-29T09:01:21;4.00;;;3.40;;
53010;SDS011;42803;55.762;38.084;2023-07-29T09:03:51;4.45;;;3.67;;
53010;SDS011;42803;55.762;38.084;2023-07-29T09:06:21;5.97;;;3.83;;
53010;SDS011;42803;55.762;38.084;2023-07-29T09:08:54;5.55;;;4.22;;
53010;SDS011;42803;55.762;38.084;2023-07-29T09:11:24;6.28;;;3.78;;
53010;SDS011;42803;55.762;38.084;2023-07-29T09:13:55;6.22;;;3.38;;
53010;SDS011;42803;55.762;38.084;2023-07-29T09:16:24;5.22;;;3.70;;
53010;SDS011;42803;55.762;38.084;2023-07-29T09:18:54;5.28;;;3.38;;
53010;SDS011;42803;55.762;38.084;2023-07-29T09:21:24;4.82;;;3.22;;
53010;SDS011;42803;55.762;38.084;2023-07-29T09:23:57;5.28;;;3.55;;
53010;SDS011;42803;55.762;38.084;2023-07-29T09:26:31;7.00;;;3.55;;
53010;SDS011;42803;55.762;38.084;2023-07-29T09:29:01;4.97;;;4.10;;
53010;SDS011;42803;55.762;38.084;2023-07-29T09:31:32;5.65;;;3.53;;
53010;SDS011;42803;55.762;38.084;2023-07-29T09:34:03;6.25;;;4.00;;
53010;SDS011;42803;55.762;38.084;2023-07-29T09:36:33;4.22;;;3.20;;
53010;SDS011;42803;55.762;38.084;2023-07-29T09:39:10;4.93;;;3.35;;
53010;SDS011;42803;55.762;38.084;2023-07-29T09:41:40;7.15;;;3.22;;
53010;SDS011;42803;55.762;38.084;2023-07-29T09:44:10;4.10;;;2.83;;
53010;SDS011;42803;55.762;38.084;2023-07-29T09:46:39;7.00;;;3.17;;
53010;SDS011;42803;55.762;38.084;2023-07-29T09:49:09;5.93;;;3.33;;
53010;SDS011;42803;55.762;38.084;2023-07-29T09:51:39;4.97;;;3.10;;
53010;SDS011;42803;55.762;38.084;2023-07-29T09:54:10;3.72;;;2.97;;
53010;SDS011;42803;55.762;38.084;2023-07-29T09:56:41;3.55;;;2.83;;
53010;SDS011;42803;55.762;38.084;2023-07-29T09:59:12;3.95;;;3.42;;
53010;SDS011;42803;55.762;38.084;2023-07-29T10:01:41;4.55;;;3.78;;
53010;SDS011;42803;55.762;38.084;2023-07-29T10:04:11;5.50;;;3.88;;
53010;SDS011;42803;55.762;38.084;2023-07-29T10:06:42;5.63;;;3.42;;
53010;SDS011;42803;55.762;38.084;2023-07-29T10:09:13;5.05;;;3.33;;
53010;SDS011;42803;55.762;38.084;2023-07-29T10:11:42;6.43;;;4.32;;
53010;SDS011;42803;55.762;38.084;2023-07-29T10:14:12;6.63;;;3.65;;
53010;SDS011;42803;55.762;38.084;2023-07-29T10:16:45;6.13;;;4.10;;
53010;SDS011;42803;55.762;38.084;2023-07-29T10:19:15;6.22;;;4.50;;
53010;SDS011;42803;55.762;38.084;2023-07-29T10:21:46;5.60;;;4.25;;
53010;SDS011;42803;55.762;38.084;2023-07-29T10:24:19;6.05;;;4.32;;
53010;SDS011;42803;55.762;38.084;2023-07-29T10:26:57;5.78;;;3.95;;
53010;SDS011;42803;55.762;38.084;2023-07-29T10:29:28;4.97;;;4.03;;
53010;SDS011;42803;55.762;38.084;2023-07-29T10:32:01;7.25;;;4.40;;
53010;SDS011;42803;55.762;38.084;2023-07-29T10:34:32;7.32;;;4.28;;
53010;SDS011;42803;55.762;38.084;2023-07-29T10:37:03;4.05;;;3.45;;
53010;SDS011;42803;55.762;38.084;2023-07-29T10:39:38;5.10;;;3.90;;
53010;SDS011;42803;55.762;38.084;2023-07-29T10:42:08;6.53;;;4.13;;
53010;SDS011;42803;55.762;38.084;2023-07-29T10:44:47;5.53;;;3.70;;
53010;SDS011;42803;55.762;38.084;2023-07-29T10:47:18;7.05;;;4.15;;
53010;SDS011;42803;55.762;38.084;2023-07-29T10:49:53;5.88;;;4.05;;
53010;SDS011;42803;55.762;38.084;2023-07-29T10:52:31;4.88;;;3.90;;
53010;SDS011;42803;55.762;38.084;2023-07-29T10:55:27;5.68;;;4.13;;
53010;SDS011;42803;55.762;38.084;2023-07-29T10:58:07;6.28;;;3.70;;
53010;SDS011;42803;55.762;38.084;2023-07-29T11:00:38;5.28;;;3.50;;
53010;SDS011;42803;55.762;38.084;2023-07-29T11:03:10;6.47;;;3.83;;
53010;SDS011;42803;55.762;38.084;2023-07-29T11:05:42;4.28;;;3.78;;
53010;SDS011;42803;55.762;38.084;2023-07-29T11:08:23;4.72;;;3.42;;
53010;SDS011;42803;55.762;38.084;2023-07-29T11:11:02;3.88;;;3.10;;
53010;SDS011;42803;55.762;38.084;2023-07-29T11:13:33;4.53;;;3.55;;
53010;SDS011;42803;55.762;38.084;2023-07-29T11:16:04;5.68;;;3.38;;
53010;SDS011;42803;55.762;38.084;2023-07-29T11:18:35;5.35;;;3.67;;
53010;SDS011;42803;55.762;38.084;2023-07-29T11:21:04;6.68;;;4.05;;
53010;SDS011;42803;55.762;38.084;2023-07-29T11:23:35;4.20;;;3.05;;
53010;SDS011;42803;55.762;38.084;2023-07-29T11:26:06;4.55;;;3.42;;
53010;SDS011;42803;55.762;38.084;2023-07-29T11:28:38;3.35;;;2.85;;
53010;SDS011;42803;55.762;38.084;2023-07-29T11:31:08;5.65;;;3.05;;
53010;SDS011;42803;55.762;38.084;2023-07-29T11:33:38;4.82;;;3.85;;
53010;SDS011;42803;55.762;38.084;2023-07-29T11:36:17;5.07;;;4.03;;
53010;SDS011;42803;55.762;38.084;2023-07-29T11:38:47;4.15;;;3.22;;
53010;SDS011;42803;55.762;38.084;2023-07-29T11:41:20;4.43;;;3.28;;
53010;SDS011;42803;55.762;38.084;2023-07-29T11:43:50;4.35;;;3.72;;
53010;SDS011;42803;55.762;38.084;2023-07-29T11:46:22;5.30;;;3.03;;
53010;SDS011;42803;55.762;38.084;2023-07-29T11:48:53;6.72;;;3.95;;
53010;SDS011;42803;55.762;38.084;2023-07-29T11:51:22;4.93;;;3.63;;
53010;SDS011;42803;55.762;38.084;2023-07-29T11:53:52;4.63;;;3.75;;
53010;SDS011;42803;55.762;38.084;2023-07-29T11:56:22;5.45;;;3.97;;
53010;SDS011;42803;55.762;38.084;2023-07-29T11:58:53;5.55;;;4.13;;
53010;SDS011;42803;55.762;38.084;2023-07-29T12:01:22;6.85;;;4.00;;
53010;SDS011;42803;55.762;38.084;2023-07-29T12:03:52;7.85;;;4.28;;
53010;SDS011;42803;55.762;38.084;2023-07-29T12:06:21;8.32;;;4.75;;
53010;SDS011;42803;55.762;38.084;2023-07-29T12:08:51;7.13;;;4.20;;
53010;SDS011;42803;55.762;38.084;2023-07-29T12:11:22;7.47;;;4.80;;
53010;SDS011;42803;55.762;38.084;2023-07-29T12:13:53;6.78;;;4.40;;
53010;SDS011;42803;55.762;38.084;2023-07-29T12:16:22;7.88;;;4.47;;
53010;SDS011;42803;55.762;38.084;2023-07-29T12:18:51;6.25;;;3.92;;
53010;SDS011;42803;55.762;38.084;2023-07-29T12:21:21;7.28;;;4.30;;
53010;SDS011;42803;55.762;38.084;2023-07-29T12:23:50;7.43;;;4.70;;
53010;SDS011;42803;55.762;38.084;2023-07-29T12:26:19;5.68;;;4.03;;
53010;SDS011;42803;55.762;38.084;2023-07-29T12:28:50;7.30;;;4.68;;
53010;SDS011;42803;55.762;38.084;2023-07-29T12:31:19;6.45;;;4.53;;
53010;SDS011;42803;55.762;38.084;2023-07-29T12:33:48;5.05;;;4.18;;
53010;SDS011;42803;55.762;38.084;2023-07-29T12:36:27;5.88;;;4.30;;
53010;SDS011;42803;55.762;38.084;2023-07-29T12:39:15;5.75;;;4.38;;
53010;SDS011;42803;55.762;38.084;2023-07-29T12:41:45;5.95;;;4.18;;
53010;SDS011;42803;55.762;38.084;2023-07-29T12:44:18;6.07;;;4.10;;
53010;SDS011;42803;55.762;38.084;2023-07-29T12:46:47;7.10;;;4.85;;
53010;SDS011;42803;55.762;38.084;2023-07-29T12:49:17;8.30;;;4.78;;
53010;SDS011;42803;55.762;38.084;2023-07-29T12:51:46;8.48;;;4.35;;
53010;SDS011;42803;55.762;38.084;2023-07-29T12:54:17;11.02;;;5.10;;
53010;SDS011;42803;55.762;38.084;2023-07-29T12:56:46;7.85;;;5.00;;
53010;SDS011;42803;55.762;38.084;2023-07-29T12:59:17;8.50;;;5.53;;
53010;SDS011;42803;55.762;38.084;2023-07-29T13:01:46;9.00;;;4.68;;
53010;SDS011;42803;55.762;38.084;2023-07-29T13:04:16;6.95;;;5.47;;
53010;SDS011;42803;55.762;38.084;2023-07-29T13:06:45;8.13;;;5.03;;
53010;SDS011;42803;55.762;38.084;2023-07-29T13:09:14;9.02;;;4.03;;
53010;SDS011;42803;55.762;38.084;2023-07-29T13:11:43;7.40;;;4.57;;
53010;SDS011;42803;55.762;38.084;2023-07-29T13:14:12;7.05;;;4.45;;
53010;SDS011;42803;55.762;38.084;2023-07-29T13:16:43;7.90;;;5.20;;
53010;SDS011;42803;55.762;38.084;2023-07-29T13:19:13;8.95;;;5.50;;
53010;SDS011;42803;55.762;38.084;2023-07-29T13:21:43;6.65;;;4.90;;
53010;SDS011;42803;55.762;38.084;2023-07-29T13:24:12;6.88;;;5.40;;
53010;SDS011;42803;55.762;38.084;2023-07-29T13:26:41;6.72;;;4.72;;
53010;SDS011;42803;55.762;38.084;2023-07-29T13:29:10;6.25;;;4.35;;
53010;SDS011;42803;55.762;38.084;2023-07-29T13:31:39;7.82;;;4.78;;
53010;SDS011;42803;55.762;38.084;2023-07-29T13:34:10;5.75;;;4.53;;
53010;SDS011;42803;55.762;38.084;2023-07-29T13:36:41;6.85;;;5.32;;
53010;SDS011;42803;55.762;38.084;2023-07-29T13:39:10;11.23;;;4.03;;
53010;SDS011;42803;55.762;38.084;2023-07-29T13:41:40;7.68;;;5.00;;
53010;SDS011;42803;55.762;38.084;2023-07-29T13:44:11;8.43;;;4.85;;
53010;SDS011;42803;55.762;38.084;2023-07-29T13:46:40;9.02;;;4.47;;
53010;SDS011;42803;55.762;38.084;2023-07-29T13:49:10;7.68;;;4.43;;
53010;SDS011;42803;55.762;38.084;2023-07-29T13:51:40;7.47;;;4.53;;
53010;SDS011;42803;55.762;38.084;2023-07-29T13:54:10;7.93;;;4.55;;
53010;SDS011;42803;55.762;38.084;2023-07-29T13:56:39;6.20;;;4.50;;
53010;SDS011;42803;55.762;38.084;2023-07-29T13:59:08;7.70;;;4.60;;
53010;SDS011;42803;55.762;38.084;2023-07-29T14:01:37;5.60;;;4.43;;
53010;SDS011;42803;55.762;38.084;2023-07-29T14:04:07;8.75;;;5.05;;
53010;SDS011;42803;55.762;38.084;2023-07-29T14:06:41;7.55;;;4.38;;
53010;SDS011;42803;55.762;38.084;2023-07-29T14:09:15;6.80;;;4.50;;
53010;SDS011;42803;55.762;38.084;2023-07-29T14:11:47;8.15;;;4.35;;
53010;SDS011;42803;55.762;38.084;2023-07-29T14:14:16;8.00;;;4.53;;
53010;SDS011;42803;55.762;38.084;2023-07-29T14:16:48;7.18;;;4.63;;
53010;SDS011;42803;55.762;38.084;2023-07-29T14:19:18;7.65;;;4.55;;
53010;SDS011;42803;55.762;38.084;2023-07-29T14:21:49;7.35;;;4.32;;
53010;SDS011;42803;55.762;38.084;2023-07-29T14:24:18;7.10;;;4.90;;
53010;SDS011;42803;55.762;38.084;2023-07-29T14:26:52;5.65;;;4.05;;
53010;SDS011;42803;55.762;38.084;2023-07-29T14:29:22;6.28;;;4.10;;
53010;SDS011;42803;55.762;38.084;2023-07-29T14:31:51;5.55;;;4.22;;
53010;SDS011;42803;55.762;38.084;2023-07-29T14:34:21;8.23;;;4.13;;
53010;SDS011;42803;55.762;38.084;2023-07-29T14:36:51;4.75;;;3.13;;
53010;SDS011;42803;55.762;38.084;2023-07-29T14:39:20;4.38;;;3.20;;
53010;SDS011;42803;55.762;38.084;2023-07-29T14:41:49;8.18;;;4.10;;
53010;SDS011;42803;55.762;38.084;2023-07-29T14:44:19;6.25;;;3.67;;
53010;SDS011;42803;55.762;38.084;2023-07-29T14:46:48;6.38;;;4.15;;
53010;SDS011;42803;55.762;38.084;2023-07-29T14:49:17;5.22;;;3.83;;
53010;SDS011;42803;55.762;38.084;2023-07-29T14:51:46;7.97;;;3.83;;